createdAt,value
2019-05-01T00:00:26.905Z,1011.96
2019-05-01T00:01:26.863Z,1011.96
2019-05-01T00:02:26.838Z,1011.91
2019-05-01T00:03:26.814Z,1011.90
2019-05-01T00:04:26.779Z,1011.95
2019-05-01T00:05:26.826Z,1011.91
2019-05-01T00:06:26.728Z,1011.92
2019-05-01T00:07:26.685Z,1011.95
2019-05-01T00:08:26.667Z,1011.91
2019-05-01T00:09:26.730Z,1011.92
2019-05-01T00:10:26.610Z,1011.88
2019-05-01T00:11:26.590Z,1011.91
2019-05-01T00:12:26.556Z,1011.87
2019-05-01T00:13:26.528Z,1011.86
2019-05-01T00:14:26.498Z,1011.89
2019-05-01T00:15:26.472Z,1011.86
2019-05-01T00:16:26.493Z,1011.88
2019-05-01T00:17:27.820Z,1011.85
2019-05-01T00:18:26.429Z,1011.84
2019-05-01T00:19:26.364Z,1011.84
2019-05-01T00:20:26.422Z,1011.84
2019-05-01T00:21:26.301Z,1011.80
2019-05-01T00:22:26.270Z,1011.77
2019-05-01T00:23:26.250Z,1011.81
2019-05-01T00:24:26.246Z,1011.78
2019-05-01T00:25:26.185Z,1011.78
2019-05-01T00:26:26.163Z,1011.82
2019-05-01T00:27:34.736Z,1011.80
2019-05-01T00:28:26.098Z,1011.76
2019-05-01T00:29:32.693Z,1011.78
2019-05-01T00:30:29.969Z,1011.82
2019-05-01T00:31:28.110Z,1011.84
2019-05-01T00:32:25.988Z,1011.80
2019-05-01T00:33:26.067Z,1011.77
2019-05-01T00:34:25.929Z,1011.74
2019-05-01T00:35:28.019Z,1011.74
2019-05-01T00:36:25.882Z,1011.70
2019-05-01T00:38:25.843Z,1011.65
2019-05-01T00:39:32.764Z,1011.62
2019-05-01T00:40:25.760Z,1011.62
2019-05-01T00:41:25.748Z,1011.54
2019-05-01T00:42:26.745Z,1011.58
2019-05-01T00:43:25.680Z,1011.61
2019-05-01T00:44:27.679Z,1011.59
2019-05-01T00:45:25.626Z,1011.52
2019-05-01T00:46:26.671Z,1011.54
2019-05-01T00:47:25.563Z,1011.55
2019-05-01T00:48:46.651Z,1011.54
2019-05-01T00:49:25.594Z,1011.57
2019-05-01T00:50:40.210Z,1011.57
2019-05-01T00:51:25.453Z,1011.59
2019-05-01T00:52:25.483Z,1011.55
2019-05-01T00:53:25.403Z,1011.58
2019-05-01T00:54:27.439Z,1011.56
2019-05-01T00:55:25.336Z,1011.59
2019-05-01T00:56:25.407Z,1011.56
2019-05-01T00:57:25.277Z,1011.57
2019-05-01T00:58:25.314Z,1011.62
2019-05-01T00:59:25.227Z,1011.58
2019-05-01T01:00:26.334Z,1011.63
2019-05-01T01:01:25.167Z,1011.56
2019-05-01T01:02:25.251Z,1011.54
2019-05-01T01:03:25.112Z,1011.59
2019-05-01T01:04:25.171Z,1011.64
2019-05-01T01:05:25.126Z,1011.55
2019-05-01T01:06:27.110Z,1011.58
2019-05-01T01:07:25.007Z,1011.55
2019-05-01T01:08:25.078Z,1011.51
2019-05-01T01:09:24.940Z,1011.53
2019-05-01T01:10:26.937Z,1011.49
2019-05-01T01:11:24.886Z,1011.51
2019-05-01T01:12:24.847Z,1011.47
2019-05-01T01:13:24.914Z,1011.49
2019-05-01T01:14:24.798Z,1011.55
2019-05-01T01:15:24.820Z,1011.54
2019-05-01T01:16:24.740Z,1011.54
2019-05-01T01:17:31.692Z,1011.53
2019-05-01T01:18:24.677Z,1011.47
2019-05-01T01:19:25.767Z,1011.50
2019-05-01T01:20:24.623Z,1011.47
2019-05-01T01:21:26.703Z,1011.43
2019-05-01T01:22:24.595Z,1011.54
2019-05-01T01:23:24.596Z,1011.50
2019-05-01T01:24:24.529Z,1011.48
2019-05-01T01:25:39.233Z,1011.49
2019-05-01T01:26:24.457Z,1011.46
2019-05-01T01:27:31.258Z,1011.44
2019-05-01T01:28:24.394Z,1011.54
2019-05-01T01:29:26.430Z,1011.41
2019-05-01T01:30:24.363Z,1011.42
2019-05-01T01:31:25.423Z,1011.38
2019-05-01T01:32:24.285Z,1011.37
2019-05-01T01:33:24.308Z,1011.36
2019-05-01T01:34:24.228Z,1011.31
2019-05-01T01:35:24.220Z,1011.34
2019-05-01T01:36:24.159Z,1011.35
2019-05-01T01:37:26.169Z,1011.32
2019-05-01T01:38:24.116Z,1011.33
2019-05-01T01:39:25.206Z,1011.36
2019-05-01T01:40:24.055Z,1011.36
2019-05-01T01:41:24.046Z,1011.34
2019-05-01T01:42:24.111Z,1011.37
2019-05-01T01:43:26.027Z,1011.35
2019-05-01T01:44:23.933Z,1011.39
2019-05-01T01:46:23.885Z,1011.40
2019-05-01T01:47:24.915Z,1011.39
2019-05-01T01:48:23.821Z,1011.40
2019-05-01T01:49:24.862Z,1011.37
2019-05-01T01:50:23.766Z,1011.37
2019-05-01T01:51:30.727Z,1011.37
2019-05-01T01:52:23.715Z,1011.33
2019-05-01T01:53:30.213Z,1011.31
2019-05-01T01:54:23.656Z,1011.32
2019-05-01T01:55:24.699Z,1011.29
2019-05-01T01:56:23.587Z,1011.33
2019-05-01T01:57:30.243Z,1011.35
2019-05-01T01:58:23.540Z,1011.34
2019-05-01T01:59:23.505Z,1011.42
2019-05-01T02:00:23.476Z,1011.36
2019-05-01T02:01:23.520Z,1011.42
2019-05-01T02:02:23.417Z,1011.38
2019-05-01T02:03:23.500Z,1011.36
2019-05-01T02:04:23.372Z,1011.36
2019-05-01T02:05:23.412Z,1011.37
2019-05-01T02:06:23.335Z,1011.35
2019-05-01T02:07:23.301Z,1011.36
2019-05-01T02:08:23.244Z,1011.32
2019-05-01T02:09:25.258Z,1011.32
2019-05-01T02:10:23.280Z,1011.32
2019-05-01T02:11:23.227Z,1011.35
2019-05-01T02:12:23.129Z,1011.34
2019-05-01T02:13:24.160Z,1011.32
2019-05-01T02:14:23.079Z,1011.35
2019-05-01T02:15:23.162Z,1011.31
2019-05-01T02:16:23.042Z,1011.36
2019-05-01T02:17:29.718Z,1011.36
2019-05-01T02:18:22.962Z,1011.34
2019-05-01T02:19:25.049Z,1011.33
2019-05-01T02:20:22.897Z,1011.33
2019-05-01T02:22:22.844Z,1011.28
2019-05-01T02:23:22.897Z,1011.28
2019-05-01T02:24:22.782Z,1011.25
2019-05-01T02:25:38.786Z,1011.28
2019-05-01T02:26:22.731Z,1011.23
2019-05-01T02:27:29.779Z,1011.20
2019-05-01T02:28:22.666Z,1011.21
2019-05-01T02:29:29.334Z,1011.24
2019-05-01T02:30:22.622Z,1011.21
2019-05-01T02:31:29.298Z,1011.21
2019-05-01T02:33:22.531Z,1011.19
2019-05-01T02:34:22.568Z,1011.23
2019-05-01T02:35:22.473Z,1011.25
2019-05-01T02:37:22.453Z,1011.25
2019-05-01T02:38:22.385Z,1011.24
2019-05-01T02:39:22.440Z,1011.21
2019-05-01T02:40:22.433Z,1011.23
2019-05-01T02:41:46.197Z,1011.26
2019-05-01T02:42:22.260Z,1011.29
2019-05-01T02:44:22.217Z,1011.28
2019-05-01T02:45:38.746Z,1011.27
2019-05-01T02:46:22.151Z,1011.23
2019-05-01T02:47:24.242Z,1011.25
2019-05-01T02:48:22.093Z,1011.22
2019-05-01T02:49:36.806Z,1011.19
2019-05-01T02:50:22.036Z,1011.18
2019-05-01T02:51:36.720Z,1011.24
2019-05-01T02:52:21.995Z,1011.23
2019-05-01T02:53:30.786Z,1011.23
2019-05-01T02:54:21.926Z,1011.26
2019-05-01T02:55:23.948Z,1011.22
2019-05-01T02:56:21.872Z,1011.17
2019-05-01T02:57:22.930Z,1011.17
2019-05-01T02:58:21.808Z,1011.16
2019-05-01T03:06:42.518Z,1011.18
2019-05-01T03:07:54.344Z,1011.12
2019-05-01T03:08:53.523Z,1011.10
2019-05-01T03:09:42.379Z,1011.11
2019-05-01T03:10:53.633Z,1011.06
2019-05-01T03:11:53.543Z,1011.06
2019-05-01T03:12:42.296Z,1011.05
2019-05-01T03:13:53.052Z,1011.06
2019-05-01T03:14:52.942Z,1011.05
2019-05-01T03:15:42.298Z,1011.03
2019-05-01T03:16:42.190Z,1011.07
2019-05-01T03:17:52.962Z,1011.05
2019-05-01T03:18:42.132Z,1011.06
2019-05-01T03:19:52.973Z,1011.07
2019-05-01T03:20:52.879Z,1011.06
2019-05-01T03:21:42.030Z,1011.11
2019-05-01T03:22:53.918Z,1011.11
2019-05-01T03:23:52.914Z,1011.09
2019-05-01T03:24:41.966Z,1011.10
2019-05-01T03:25:52.928Z,1011.06
2019-05-01T03:26:53.131Z,1011.10
2019-05-01T03:27:41.882Z,1011.10
2019-05-01T03:28:53.114Z,1011.09
2019-05-01T03:29:53.060Z,1011.04
2019-05-01T03:30:41.800Z,1011.04
2019-05-01T03:32:14.189Z,1011.08
2019-05-01T03:32:52.554Z,1011.05
2019-05-01T03:33:41.702Z,1011.07
2019-05-01T03:34:53.278Z,1011.05
2019-05-01T03:35:52.441Z,1011.03
2019-05-01T03:36:41.614Z,1010.98
2019-05-01T03:37:52.544Z,1011.04
2019-05-01T03:38:52.453Z,1010.99
2019-05-01T03:39:41.532Z,1011.04
2019-05-01T03:40:52.473Z,1010.93
2019-05-01T03:41:52.371Z,1010.92
2019-05-01T03:42:41.439Z,1010.92
2019-05-01T03:43:52.486Z,1010.97
2019-05-01T03:44:52.394Z,1010.93
2019-05-01T03:45:41.357Z,1010.91
2019-05-01T03:46:52.398Z,1010.88
2019-05-01T03:47:52.112Z,1010.88
2019-05-01T03:48:41.284Z,1010.87
2019-05-01T03:51:13.686Z,1010.91
2019-05-01T03:52:13.659Z,1010.91
2019-05-01T03:54:07.460Z,1010.90
2019-05-01T03:55:07.433Z,1010.90
2019-05-01T03:56:07.401Z,1010.88
2019-05-01T03:57:07.375Z,1010.89
2019-05-01T03:58:07.349Z,1010.88
2019-05-01T03:59:07.305Z,1010.88
2019-05-01T04:00:07.285Z,1010.86
2019-05-01T04:01:07.250Z,1010.88
2019-05-01T04:02:07.214Z,1010.86
2019-05-01T04:03:07.192Z,1010.87
2019-05-01T04:04:07.174Z,1010.85
2019-05-01T04:05:07.131Z,1010.89
2019-05-01T04:06:07.178Z,1010.91
2019-05-01T04:07:07.093Z,1010.90
2019-05-01T04:08:07.041Z,1010.87
2019-05-01T04:09:07.040Z,1010.90
2019-05-01T04:10:07.020Z,1010.87
2019-05-01T04:11:06.963Z,1010.85
2019-05-01T04:12:07.024Z,1010.85
2019-05-01T04:13:06.907Z,1010.85
2019-05-01T04:14:06.871Z,1010.87
2019-05-01T04:15:06.851Z,1010.91
2019-05-01T04:16:06.827Z,1010.90
2019-05-01T04:17:06.782Z,1010.91
2019-05-01T04:18:06.769Z,1010.92
2019-05-01T04:19:06.734Z,1010.93
2019-05-01T04:20:06.726Z,1010.93
2019-05-01T04:21:06.679Z,1010.91
2019-05-01T04:22:06.677Z,1010.97
2019-05-01T04:23:06.612Z,1010.90
2019-05-01T04:24:06.590Z,1010.94
2019-05-01T04:25:06.601Z,1010.94
2019-05-01T04:26:06.536Z,1010.96
2019-05-01T04:27:06.507Z,1010.96
2019-05-01T04:28:06.462Z,1010.98
2019-05-01T04:29:06.437Z,1010.98
2019-05-01T04:30:06.431Z,1010.94
2019-05-01T04:31:06.376Z,1010.95
2019-05-01T04:32:06.351Z,1010.93
2019-05-01T04:33:06.322Z,1010.93
2019-05-01T04:34:06.297Z,1010.93
2019-05-01T04:35:06.273Z,1010.95
2019-05-01T04:36:13.067Z,1011.03
2019-05-01T04:37:08.096Z,1011.02
2019-05-01T04:38:08.314Z,1011.02
2019-05-01T04:39:06.148Z,1011.05
2019-05-01T04:40:06.119Z,1011.04
2019-05-01T04:41:06.105Z,1011.03
2019-05-01T04:42:06.066Z,1011.03
2019-05-01T04:43:06.066Z,1011.01
2019-05-01T04:44:06.008Z,1011.06
2019-05-01T04:45:06.075Z,1011.02
2019-05-01T04:46:05.938Z,1011.03
2019-05-01T04:47:05.988Z,1011.08
2019-05-01T04:48:05.892Z,1011.06
2019-05-01T04:49:05.893Z,1011.05
2019-05-01T04:50:05.826Z,1011.05
2019-05-01T04:51:05.903Z,1011.04
2019-05-01T04:52:05.777Z,1011.03
2019-05-01T04:53:05.746Z,1011.04
2019-05-01T04:54:05.706Z,1011.04
2019-05-01T04:55:05.686Z,1011.10
2019-05-01T04:56:05.652Z,1011.07
2019-05-01T04:57:05.636Z,1011.10
2019-05-01T04:58:05.598Z,1011.11
2019-05-01T04:59:14.343Z,1011.11
2019-05-01T05:00:05.531Z,1011.09
2019-05-01T05:01:06.587Z,1011.06
2019-05-01T05:02:05.506Z,1011.13
2019-05-01T05:03:05.634Z,1011.18
2019-05-01T05:04:05.423Z,1011.12
2019-05-01T05:06:05.358Z,1011.17
2019-05-01T05:07:05.344Z,1011.16
2019-05-01T05:08:12.249Z,1011.14
2019-05-01T05:09:05.277Z,1011.16
2019-05-01T05:10:05.320Z,1011.14
2019-05-01T05:11:05.217Z,1011.19
2019-05-01T05:12:05.228Z,1011.19
2019-05-01T05:13:05.184Z,1011.22
2019-05-01T05:22:02.402Z,1011.25
2019-05-01T05:23:02.427Z,1011.23
2019-05-01T05:24:02.326Z,1011.22
2019-05-01T05:25:02.328Z,1011.25
2019-05-01T05:26:02.283Z,1011.25
2019-05-01T05:27:02.343Z,1011.26
2019-05-01T05:28:02.230Z,1011.25
2019-05-01T05:29:02.260Z,1011.23
2019-05-01T05:30:02.155Z,1011.29
2019-05-01T05:31:02.173Z,1011.22
2019-05-01T05:32:02.098Z,1011.23
2019-05-01T05:33:02.089Z,1011.26
2019-05-01T05:34:02.040Z,1011.23
2019-05-01T05:36:01.976Z,1011.17
2019-05-01T05:37:11.014Z,1011.13
2019-05-01T05:38:01.917Z,1011.14
2019-05-01T05:39:10.533Z,1011.20
2019-05-01T05:40:01.866Z,1011.16
2019-05-01T05:41:03.879Z,1011.17
2019-05-01T05:42:01.805Z,1011.21
2019-05-01T05:43:09.518Z,1011.22
2019-05-01T05:44:01.754Z,1011.19
2019-05-01T05:45:10.448Z,1011.20
2019-05-01T05:46:01.689Z,1011.22
2019-05-01T05:47:17.453Z,1011.20
2019-05-01T05:48:01.624Z,1011.22
2019-05-01T05:49:25.450Z,1011.25
2019-05-01T05:50:01.582Z,1011.22
2019-05-01T05:51:01.609Z,1011.22
2019-05-01T05:52:01.510Z,1011.18
2019-05-01T05:53:26.503Z,1011.18
2019-05-01T05:54:01.455Z,1011.19
2019-05-01T05:55:01.427Z,1011.18
2019-05-01T05:56:02.456Z,1011.16
2019-05-01T05:57:01.381Z,1011.19
2019-05-01T05:59:01.317Z,1011.17
2019-05-01T06:01:01.245Z,1011.11
2019-05-01T06:02:01.213Z,1011.15
2019-05-01T06:04:01.161Z,1011.07
2019-05-01T06:05:01.234Z,1011.15
2019-05-01T06:06:01.123Z,1011.14
2019-05-01T06:07:01.077Z,1011.14
2019-05-01T06:08:01.049Z,1011.12
2019-05-01T06:09:01.019Z,1011.15
2019-05-01T06:10:00.983Z,1011.14
2019-05-01T06:11:01.072Z,1011.17
2019-05-01T06:12:05.023Z,1011.15
2019-05-01T06:13:01.027Z,1011.17
2019-05-01T06:14:00.869Z,1011.16
2019-05-01T06:15:02.446Z,1011.16
2019-05-01T06:16:00.810Z,1011.11
2019-05-01T06:17:00.840Z,1011.10
2019-05-01T06:18:04.161Z,1011.14
2019-05-01T06:19:00.736Z,1011.15
2019-05-01T06:20:00.694Z,1011.14
2019-05-01T06:21:02.153Z,1011.16
2019-05-01T06:22:04.930Z,1011.08
2019-05-01T06:23:00.617Z,1011.09
2019-05-01T06:24:06.302Z,1011.09
2019-05-01T06:25:00.551Z,1011.14
2019-05-01T06:26:02.483Z,1011.10
2019-05-01T06:27:00.504Z,1011.11
2019-05-01T06:28:00.524Z,1011.16
2019-05-01T06:29:01.971Z,1011.10
2019-05-01T06:30:00.515Z,1011.11
2019-05-01T06:31:00.368Z,1011.12
2019-05-01T06:32:00.431Z,1011.08
2019-05-01T06:33:04.197Z,1011.06
2019-05-01T06:34:00.281Z,1011.10
2019-05-01T06:35:03.091Z,1011.10
2019-05-01T06:36:00.234Z,1011.16
2019-05-01T06:37:00.243Z,1011.12
2019-05-01T06:38:00.731Z,1011.15
2019-05-01T06:39:02.254Z,1011.16
2019-05-01T06:40:00.121Z,1011.18
2019-05-01T06:41:00.181Z,1011.12
2019-05-01T06:42:00.076Z,1011.16
2019-05-01T06:43:01.106Z,1011.12
2019-05-01T06:44:02.209Z,1011.11
2019-05-01T06:45:16.777Z,1011.13
2019-05-01T06:46:00.043Z,1011.16
2019-05-01T06:47:03.261Z,1011.18
2019-05-01T06:47:59.877Z,1011.18
2019-05-01T06:48:59.911Z,1011.18
2019-05-01T06:50:01.226Z,1011.17
2019-05-01T06:51:07.508Z,1011.15
2019-05-01T06:51:59.803Z,1011.17
2019-05-01T06:53:06.729Z,1011.16
2019-05-01T06:53:59.702Z,1011.19
2019-05-01T06:54:59.739Z,1011.19
2019-05-01T06:55:59.645Z,1011.23
2019-05-01T06:57:07.539Z,1011.20
2019-05-01T06:57:59.592Z,1011.18
2019-05-01T06:59:14.535Z,1011.17
2019-05-01T07:00:03.121Z,1011.21
2019-05-01T07:00:59.498Z,1011.22
2019-05-01T07:02:00.251Z,1011.22
2019-05-01T07:02:59.444Z,1011.24
2019-05-01T07:04:03.862Z,1011.27
2019-05-01T07:04:59.393Z,1011.21
2019-05-01T07:06:13.361Z,1011.20
2019-05-01T07:07:01.894Z,1011.23
2019-05-01T07:07:59.336Z,1011.25
2019-05-01T07:08:59.288Z,1011.29
2019-05-01T07:10:08.060Z,1011.28
2019-05-01T07:10:59.212Z,1011.26
2019-05-01T07:11:59.267Z,1011.30
2019-05-01T07:12:59.911Z,1011.23
2019-05-01T07:14:11.220Z,1011.28
2019-05-01T07:14:59.145Z,1011.24
2019-05-01T07:16:03.067Z,1011.25
2019-05-01T07:16:59.071Z,1011.26
2019-05-01T07:18:00.144Z,1011.25
2019-05-01T07:19:05.735Z,1011.28
2019-05-01T07:20:01.091Z,1011.31
2019-05-01T07:20:58.945Z,1011.27
2019-05-01T07:22:01.819Z,1011.26
2019-05-01T07:22:58.907Z,1011.25
2019-05-01T07:24:07.559Z,1011.22
2019-05-01T07:25:03.383Z,1011.25
2019-05-01T07:25:58.870Z,1011.24
2019-05-01T07:26:59.855Z,1011.27
2019-05-01T07:27:59.755Z,1011.26
2019-05-01T07:28:58.707Z,1011.26
2019-05-01T07:29:58.777Z,1011.26
2019-05-01T07:30:58.678Z,1011.28
2019-05-01T07:32:01.642Z,1011.25
2019-05-01T07:32:58.600Z,1011.25
2019-05-01T07:33:58.594Z,1011.24
2019-05-01T07:35:02.082Z,1011.25
2019-05-01T07:35:58.608Z,1011.24
2019-05-01T07:36:58.498Z,1011.22
2019-05-01T07:38:02.260Z,1011.19
2019-05-01T07:38:58.415Z,1011.22
2019-05-01T07:39:58.421Z,1011.21
2019-05-01T07:40:58.899Z,1011.20
2019-05-01T07:41:58.436Z,1011.19
2019-05-01T07:42:58.337Z,1011.28
2019-05-01T07:43:59.720Z,1011.23
2019-05-01T07:44:58.224Z,1011.25
2019-05-01T07:46:07.089Z,1011.20
2019-05-01T07:46:58.209Z,1011.26
2019-05-01T07:48:01.087Z,1011.23
2019-05-01T07:48:58.154Z,1011.23
2019-05-01T07:50:00.170Z,1011.27
2019-05-01T07:51:01.843Z,1011.18
2019-05-01T07:52:01.708Z,1011.17
2019-05-01T07:52:58.018Z,1011.21
2019-05-01T07:54:08.737Z,1011.17
2019-05-01T07:54:57.939Z,1011.24
2019-05-01T07:55:57.957Z,1011.18
2019-05-01T07:56:58.653Z,1011.18
2019-05-01T07:57:57.864Z,1011.16
2019-05-01T07:58:58.982Z,1011.16
2019-05-01T07:59:58.332Z,1011.21
2019-05-01T08:00:58.880Z,1011.16
2019-05-01T08:01:57.733Z,1011.22
2019-05-01T08:02:57.758Z,1011.17
2019-05-01T08:03:57.686Z,1011.13
2019-05-01T08:04:59.739Z,1011.19
2019-05-01T08:05:57.642Z,1011.12
2019-05-01T08:06:58.690Z,1011.11
2019-05-01T08:07:57.578Z,1011.12
2019-05-01T08:08:57.551Z,1011.13
2019-05-01T08:09:57.513Z,1011.17
2019-05-01T08:10:59.821Z,1011.09
2019-05-01T08:11:57.483Z,1011.11
2019-05-01T08:13:00.340Z,1011.11
2019-05-01T08:14:07.109Z,1011.15
2019-05-01T08:14:57.370Z,1011.17
2019-05-01T08:15:57.450Z,1011.19
2019-05-01T08:16:57.381Z,1011.15
2019-05-01T08:17:57.287Z,1011.13
2019-05-01T08:18:59.003Z,1011.13
2019-05-01T08:19:57.255Z,1011.14
2019-05-01T08:20:57.219Z,1011.14
2019-05-01T08:22:01.698Z,1011.13
2019-05-01T08:22:57.159Z,1011.09
2019-05-01T08:23:57.121Z,1011.08
2019-05-01T08:24:58.763Z,1011.08
2019-05-01T08:25:57.063Z,1011.12
2019-05-01T08:26:57.179Z,1011.10
2019-05-01T08:27:58.109Z,1011.13
2019-05-01T08:28:57.140Z,1011.08
2019-05-01T08:29:56.942Z,1011.10
2019-05-01T08:30:57.095Z,1011.12
2019-05-01T08:31:58.749Z,1011.15
2019-05-01T08:32:56.906Z,1011.13
2019-05-01T08:33:56.870Z,1011.11
2019-05-01T08:35:00.381Z,1011.12
2019-05-01T08:35:56.787Z,1011.11
2019-05-01T08:36:56.959Z,1011.10
2019-05-01T08:37:58.496Z,1011.11
2019-05-01T08:38:56.885Z,1011.13
2019-05-01T08:39:56.691Z,1011.14
2019-05-01T08:40:56.858Z,1011.12
2019-05-01T08:41:56.592Z,1011.10
2019-05-01T08:42:56.774Z,1011.09
2019-05-01T08:43:56.525Z,1011.11
2019-05-01T08:44:59.858Z,1011.10
2019-05-01T08:45:56.520Z,1011.15
2019-05-01T08:46:56.607Z,1011.11
2019-05-01T08:47:56.758Z,1011.13
2019-05-01T08:48:56.438Z,1011.13
2019-05-01T08:49:56.357Z,1011.13
2019-05-01T08:51:11.060Z,1011.18
2019-05-01T08:51:56.305Z,1011.16
2019-05-01T08:53:34.078Z,1011.18
2019-05-01T08:53:57.957Z,1011.17
2019-05-01T08:54:56.269Z,1011.15
2019-05-01T08:55:56.276Z,1011.14
2019-05-01T08:56:57.976Z,1011.14
2019-05-01T08:57:56.108Z,1011.14
2019-05-01T08:58:56.192Z,1011.13
2019-05-01T09:00:00.397Z,1011.16
2019-05-01T09:00:56.097Z,1011.13
2019-05-01T09:02:09.026Z,1011.18
2019-05-01T09:03:07.902Z,1011.16
2019-05-01T09:03:56.072Z,1011.16
2019-05-01T09:05:02.529Z,1011.13
2019-05-01T09:05:57.298Z,1011.10
2019-05-01T09:06:55.894Z,1011.14
2019-05-01T09:07:57.656Z,1011.12
2019-05-01T09:08:55.805Z,1011.10
2019-05-01T09:09:55.896Z,1011.09
2019-05-01T09:11:00.280Z,1011.15
2019-05-01T09:11:55.785Z,1011.12
2019-05-01T09:12:55.700Z,1011.10
2019-05-01T09:13:58.925Z,1011.07
2019-05-01T09:14:55.632Z,1011.09
2019-05-01T09:15:55.658Z,1011.09
2019-05-01T09:16:55.592Z,1011.10
2019-05-01T09:17:55.544Z,1011.10
2019-05-01T09:18:55.630Z,1011.04
2019-05-01T09:19:55.479Z,1011.07
2019-05-01T09:20:55.482Z,1011.07
2019-05-01T09:21:55.549Z,1011.10
2019-05-01T09:22:55.427Z,1011.06
2019-05-01T09:23:55.465Z,1011.05
2019-05-01T09:24:59.895Z,1011.07
2019-05-01T09:25:56.408Z,1011.02
2019-05-01T09:26:55.289Z,1011.06
2019-05-01T09:27:55.452Z,1011.05
2019-05-01T09:28:55.254Z,1011.00
2019-05-01T09:29:55.268Z,1010.99
2019-05-01T09:31:01.372Z,1011.01
2019-05-01T09:31:55.171Z,1011.00
2019-05-01T09:32:55.576Z,1011.02
2019-05-01T09:33:55.103Z,1010.97
2019-05-01T09:34:58.035Z,1010.97
2019-05-01T09:35:56.139Z,1010.93
2019-05-01T09:36:55.971Z,1010.93
2019-05-01T09:37:57.739Z,1010.94
2019-05-01T09:38:54.952Z,1010.91
2019-05-01T09:39:54.978Z,1010.95
2019-05-01T09:40:54.917Z,1010.93
2019-05-01T09:41:54.985Z,1010.93
2019-05-01T09:42:58.968Z,1010.91
2019-05-01T09:43:54.893Z,1010.88
2019-05-01T09:44:54.772Z,1010.88
2019-05-01T09:45:54.779Z,1010.87
2019-05-01T09:46:54.723Z,1010.91
2019-05-01T09:47:54.718Z,1010.90
2019-05-01T09:48:54.653Z,1010.90
2019-05-01T09:49:55.975Z,1010.90
2019-05-01T09:50:54.598Z,1010.88
2019-05-01T09:51:54.566Z,1010.89
2019-05-01T09:52:55.164Z,1010.89
2019-05-01T09:53:54.622Z,1010.88
2019-05-01T09:54:54.520Z,1010.89
2019-05-01T09:55:54.436Z,1010.86
2019-05-01T09:56:54.439Z,1010.89
2019-05-01T09:57:55.431Z,1010.90
2019-05-01T09:58:54.375Z,1010.85
2019-05-01T09:59:54.362Z,1010.89
2019-05-01T10:00:54.346Z,1010.87
2019-05-01T10:01:54.318Z,1010.84
2019-05-01T10:02:54.737Z,1010.83
2019-05-01T10:03:54.823Z,1010.85
2019-05-01T10:04:54.178Z,1010.85
2019-05-01T10:05:54.269Z,1010.88
2019-05-01T10:06:54.224Z,1010.85
2019-05-01T10:07:54.188Z,1010.88
2019-05-01T10:08:54.081Z,1010.83
2019-05-01T10:09:55.163Z,1010.80
2019-05-01T10:10:54.021Z,1010.81
2019-05-01T10:11:56.175Z,1010.80
2019-05-01T10:12:54.011Z,1010.76
2019-05-01T10:13:58.545Z,1010.78
2019-05-01T10:14:53.907Z,1010.77
2019-05-01T10:15:53.895Z,1010.76
2019-05-01T10:16:53.856Z,1010.75
2019-05-01T10:17:53.851Z,1010.73
2019-05-01T10:18:53.948Z,1010.79
2019-05-01T10:19:53.845Z,1010.81
2019-05-01T10:20:53.735Z,1010.81
2019-05-01T10:21:53.720Z,1010.77
2019-05-01T10:22:53.728Z,1010.73
2019-05-01T10:23:53.861Z,1010.68
2019-05-01T10:24:53.702Z,1010.73
2019-05-01T10:25:53.617Z,1010.71
2019-05-01T10:26:55.237Z,1010.69
2019-05-01T10:27:53.585Z,1010.72
2019-05-01T10:28:53.519Z,1010.69
2019-05-01T10:29:56.918Z,1010.69
2019-05-01T10:30:53.519Z,1010.66
2019-05-01T10:31:53.487Z,1010.65
2019-05-01T10:32:58.010Z,1010.65
2019-05-01T10:33:54.361Z,1010.65
2019-05-01T10:34:53.353Z,1010.67
2019-05-01T10:35:53.334Z,1010.61
2019-05-01T10:36:54.596Z,1010.63
2019-05-01T10:37:53.294Z,1010.56
2019-05-01T10:38:53.223Z,1010.61
2019-05-01T10:39:54.127Z,1010.59
2019-05-01T10:40:53.188Z,1010.59
2019-05-01T10:41:53.225Z,1010.55
2019-05-01T10:42:53.096Z,1010.58
2019-05-01T10:43:53.081Z,1010.56
2019-05-01T10:44:53.062Z,1010.54
2019-05-01T10:45:53.008Z,1010.51
2019-05-01T10:46:52.990Z,1010.53
2019-05-01T10:47:52.977Z,1010.54
2019-05-01T10:48:52.924Z,1010.58
2019-05-01T10:50:07.533Z,1010.54
2019-05-01T10:50:52.887Z,1010.55
2019-05-01T10:53:25.091Z,1010.43
2019-05-01T12:05:36.703Z,1009.84
2019-05-01T12:06:33.796Z,1009.83
2019-05-01T12:07:33.894Z,1009.83
2019-05-01T12:08:33.729Z,1009.79
2019-05-01T12:09:33.704Z,1009.79
2019-05-01T12:10:33.676Z,1009.75
2019-05-01T12:11:34.651Z,1009.78
2019-05-01T12:12:33.613Z,1009.78
2019-05-01T12:18:16.893Z,1009.74
2019-05-01T12:19:14.219Z,1009.75
2019-05-01T12:20:14.169Z,1009.71
2019-05-01T12:21:14.149Z,1009.73
2019-05-01T12:22:14.095Z,1009.78
2019-05-01T12:23:14.088Z,1009.73
2019-05-01T12:24:14.052Z,1009.73
2019-05-01T12:25:14.027Z,1009.69
2019-05-01T12:26:13.993Z,1009.72
2019-05-01T12:27:13.967Z,1009.71
2019-05-01T12:28:13.932Z,1009.72
2019-05-01T12:29:13.926Z,1009.66
2019-05-01T12:30:13.878Z,1009.71
2019-05-01T12:31:13.847Z,1009.70
2019-05-01T12:32:13.827Z,1009.67
2019-05-01T12:33:13.802Z,1009.66
2019-05-01T12:34:13.772Z,1009.64
2019-05-01T12:35:13.744Z,1009.64
2019-05-01T12:36:13.708Z,1009.59
2019-05-01T12:37:13.706Z,1009.61
2019-05-01T12:38:13.651Z,1009.56
2019-05-01T12:39:13.633Z,1009.56
2019-05-01T12:40:13.593Z,1009.55
2019-05-01T12:41:13.570Z,1009.51
2019-05-01T12:42:13.536Z,1009.52
2019-05-01T12:43:13.515Z,1009.51
2019-05-01T12:44:13.479Z,1009.47
2019-05-01T12:45:13.457Z,1009.50
2019-05-01T12:46:13.437Z,1009.50
2019-05-01T12:47:13.402Z,1009.42
2019-05-01T12:48:13.466Z,1009.41
2019-05-01T12:49:15.766Z,1009.36
2019-05-01T12:50:13.328Z,1009.34
2019-05-01T12:51:14.289Z,1009.35
2019-05-01T12:52:13.255Z,1009.32
2019-05-01T12:53:13.238Z,1009.31
2019-05-01T12:54:13.203Z,1009.31
2019-05-01T12:55:13.196Z,1009.31
2019-05-01T12:56:13.155Z,1009.33
2019-05-01T12:57:13.124Z,1009.35
2019-05-01T12:58:13.098Z,1009.25
2019-05-01T12:59:13.072Z,1009.26
2019-05-01T13:00:13.052Z,1009.22
2019-05-01T13:01:13.033Z,1009.18
2019-05-01T13:02:12.988Z,1009.20
2019-05-01T13:03:12.950Z,1009.16
2019-05-01T13:04:12.931Z,1009.16
2019-05-01T13:05:12.894Z,1009.20
2019-05-01T13:06:14.407Z,1009.16
2019-05-01T13:07:12.957Z,1009.12
2019-05-01T13:08:12.808Z,1009.09
2019-05-01T13:09:12.829Z,1009.11
2019-05-01T13:10:12.759Z,1009.09
2019-05-01T13:11:12.760Z,1009.05
2019-05-01T13:12:12.688Z,1009.02
2019-05-01T13:13:12.669Z,1009.02
2019-05-01T13:14:12.654Z,1008.99
2019-05-01T13:15:12.614Z,1009.00
2019-05-01T13:16:12.602Z,1009.01
2019-05-01T13:17:12.562Z,1009.06
2019-05-01T13:18:12.528Z,1009.01
2019-05-01T13:19:12.535Z,1009.00
2019-05-01T13:20:12.535Z,1008.98
2019-05-01T13:21:12.434Z,1008.97
2019-05-01T13:22:12.467Z,1008.95
2019-05-01T13:23:12.385Z,1008.94
2019-05-01T13:24:14.364Z,1008.89
2019-05-01T13:25:12.324Z,1008.92
2019-05-01T13:26:12.309Z,1008.90
2019-05-01T13:27:12.266Z,1008.91
2019-05-01T13:28:12.244Z,1008.85
2019-05-01T13:29:12.220Z,1008.84
2019-05-01T13:30:12.215Z,1008.90
2019-05-01T13:31:12.164Z,1008.86
2019-05-01T13:32:12.140Z,1008.88
2019-05-01T13:33:12.108Z,1008.87
2019-05-01T13:34:12.090Z,1008.80
2019-05-01T13:35:12.044Z,1008.78
2019-05-01T13:36:13.097Z,1008.70
2019-05-01T13:37:11.987Z,1008.73
2019-05-01T13:38:11.961Z,1008.70
2019-05-01T13:39:11.931Z,1008.79
2019-05-01T13:40:12.903Z,1008.75
2019-05-01T13:41:11.873Z,1008.77
2019-05-01T13:42:11.845Z,1008.75
2019-05-01T13:43:11.822Z,1008.74
2019-05-01T13:44:11.815Z,1008.75
2019-05-01T13:45:11.775Z,1008.74
2019-05-01T13:46:11.749Z,1008.72
2019-05-01T13:47:11.712Z,1008.70
2019-05-01T13:48:11.679Z,1008.70
2019-05-01T13:49:11.648Z,1008.67
2019-05-01T13:50:11.627Z,1008.67
2019-05-01T13:51:11.595Z,1008.65